Time;durP1;ratioP1;P1;durP2;ratioP2;P2;SDS_P1;SDS_P2;PMS_P1;PMS_P2;Temp;Humidity;BMP_temperature;BMP_pressure;BME280_temperature;BME280_humidity;BME280_pressure;Samples;Min_cycle;Max_cycle;Signal;HPM_P1;HPM_P2
2022/03/28 00:00:05;;;;;;;18.03;8.97;;;;;;;;;;5063856;28;20273;-85
2022/03/28 00:02:33;;;;;;;18.93;9.07;;;;;;;;;;5063541;28;20233;-85
2022/03/28 00:05:01;;;;;;;16.43;8.23;;;;;;;;;;5070540;28;20225;-85
2022/03/28 00:07:28;;;;;;;18.10;8.57;;;;;;;;;;5062729;28;20254;-83
2022/03/28 00:09:56;;;;;;;15.27;8.40;;;;;;;;;;5062391;28;20238;-86
2022/03/28 00:12:23;;;;;;;18.20;8.30;;;;;;;;;;5064881;28;20255;-84
2022/03/28 00:14:50;;;;;;;16.83;8.43;;;;;;;;;;5062561;28;20898;-84
2022/03/28 00:17:17;;;;;;;16.37;8.20;;;;;;;;;;5066974;28;20198;-85
2022/03/28 00:19:45;;;;;;;16.27;7.60;;;;;;;;;;5067055;28;20282;-84
2022/03/28 00:22:13;;;;;;;20.23;8.90;;;;;;;;;;5064905;28;20282;-84
2022/03/28 00:24:40;;;;;;;17.10;8.53;;;;;;;;;;5065110;28;20215;-85
2022/03/28 00:27:08;;;;;;;18.57;8.47;;;;;;;;;;5067117;28;20195;-82
2022/03/28 00:29:35;;;;;;;14.27;7.70;;;;;;;;;;5070016;28;20230;-81
2022/03/28 00:32:03;;;;;;;18.20;8.30;;;;;;;;;;5072693;28;20242;-81
2022/03/28 00:34:30;;;;;;;13.97;7.23;;;;;;;;;;5072035;28;20198;-80
2022/03/28 00:36:57;;;;;;;16.17;8.17;;;;;;;;;;5074349;28;20191;-80
2022/03/28 00:39:26;;;;;;;14.23;7.47;;;;;;;;;;5074202;28;20225;-80
2022/03/28 00:41:54;;;;;;;17.70;7.83;;;;;;;;;;5083298;28;20187;-80
2022/03/28 00:44:21;;;;;;;18.70;8.53;;;;;;;;;;5072358;28;20203;-82
2022/03/28 00:46:48;;;;;;;15.90;8.43;;;;;;;;;;5071941;28;20207;-83
2022/03/28 00:49:16;;;;;;;18.67;8.23;;;;;;;;;;5075913;28;20195;-83
2022/03/28 00:51:43;;;;;;;17.40;7.93;;;;;;;;;;5074851;28;20215;-82
2022/03/28 00:54:11;;;;;;;19.97;8.10;;;;;;;;;;5070782;28;20262;-84
2022/03/28 00:56:41;;;;;;;19.10;8.90;;;;;;;;;;5079690;28;20213;-83
2022/03/28 00:59:08;;;;;;;17.93;8.00;;;;;;;;;;5072655;28;20644;-84
2022/03/28 01:01:36;;;;;;;20.70;8.23;;;;;;;;;;5067280;28;20608;-82
2022/03/28 01:04:06;;;;;;;13.73;7.90;;;;;;;;;;5070119;28;20220;-84
2022/03/28 01:06:33;;;;;;;17.57;7.93;;;;;;;;;;5072054;28;20187;-81
2022/03/28 01:09:00;;;;;;;19.00;8.27;;;;;;;;;;5072685;28;20199;-80
2022/03/28 01:11:28;;;;;;;16.77;8.30;;;;;;;;;;5079247;28;20187;-79
2022/03/28 01:13:57;;;;;;;16.63;7.60;;;;;;;;;;5068635;28;20215;-85
2022/03/28 01:16:25;;;;;;;17.33;8.17;;;;;;;;;;5063124;28;20206;-83
2022/03/28 01:18:51;;;;;;;14.53;7.77;;;;;;;;;;5059813;28;20223;-85
2022/03/28 01:21:19;;;;;;;16.50;7.77;;;;;;;;;;5062783;28;20195;-84
2022/03/28 01:23:47;;;;;;;13.97;7.27;;;;;;;;;;5062951;28;20294;-84
2022/03/28 01:26:15;;;;;;;14.13;7.33;;;;;;;;;;5057380;28;20229;-85
2022/03/28 01:28:43;;;;;;;17.87;7.87;;;;;;;;;;5058127;28;20202;-85
2022/03/28 01:31:10;;;;;;;16.80;7.97;;;;;;;;;;5063804;28;20643;-85
2022/03/28 01:33:37;;;;;;;15.40;7.57;;;;;;;;;;5061097;28;20233;-83
2022/03/28 01:36:05;;;;;;;15.40;7.63;;;;;;;;;;5062119;28;20297;-81
2022/03/28 01:38:34;;;;;;;17.40;8.17;;;;;;;;;;5061506;28;20297;-85
2022/03/28 01:41:01;;;;;;;16.73;7.90;;;;;;;;;;5061883;28;20245;-85
2022/03/28 01:43:28;;;;;;;15.63;7.40;;;;;;;;;;5061714;28;20226;-85
2022/03/28 01:45:55;;;;;;;18.63;7.73;;;;;;;;;;5065071;28;20203;-81
2022/03/28 01:48:22;;;;;;;18.17;7.63;;;;;;;;;;5064664;28;20211;-84
2022/03/28 01:50:50;;;;;;;16.07;7.63;;;;;;;;;;5059843;28;20203;-81
2022/03/28 01:53:17;;;;;;;17.03;8.17;;;;;;;;;;5054946;28;20729;-85
2022/03/28 01:55:45;;;;;;;19.50;8.67;;;;;;;;;;5056609;28;20253;-84
2022/03/28 01:58:13;;;;;;;19.50;7.90;;;;;;;;;;5065822;28;20330;-83
2022/03/28 02:00:40;;;;;;;18.33;7.73;;;;;;;;;;5057296;28;20285;-84
2022/03/28 02:03:08;;;;;;;16.73;8.07;;;;;;;;;;5047928;28;20219;-83
2022/03/28 02:05:35;;;;;;;19.77;8.53;;;;;;;;;;5055712;28;20209;-84
2022/03/28 02:08:02;;;;;;;16.57;7.50;;;;;;;;;;5056028;28;20339;-83
2022/03/28 02:10:30;;;;;;;20.23;8.10;;;;;;;;;;5058725;28;20229;-83
2022/03/28 02:12:58;;;;;;;15.83;8.33;;;;;;;;;;5050174;28;20309;-84
2022/03/28 02:15:26;;;;;;;16.73;8.00;;;;;;;;;;5053154;28;20230;-84
2022/03/28 02:17:53;;;;;;;19.70;8.40;;;;;;;;;;5055328;28;20203;-83
2022/03/28 02:20:20;;;;;;;17.13;7.97;;;;;;;;;;5061157;28;20313;-83
2022/03/28 02:22:48;;;;;;;18.30;7.67;;;;;;;;;;5055206;28;20269;-84
2022/03/28 02:25:16;;;;;;;16.00;7.47;;;;;;;;;;5052773;28;20207;-84
2022/03/28 02:27:43;;;;;;;18.73;7.90;;;;;;;;;;5053399;28;20682;-84
2022/03/28 02:30:13;;;;;;;17.90;8.30;;;;;;;;;;5052363;28;20250;-82
2022/03/28 02:32:43;;;;;;;15.67;7.73;;;;;;;;;;5056432;28;20306;-84
2022/03/28 02:35:11;;;;;;;19.27;8.13;;;;;;;;;;5054116;28;20214;-83
2022/03/28 02:37:38;;;;;;;18.27;7.57;;;;;;;;;;5053967;28;20208;-83
2022/03/28 02:40:08;;;;;;;19.83;8.03;;;;;;;;;;5056033;28;20668;-83
2022/03/28 02:42:35;;;;;;;19.67;8.10;;;;;;;;;;5059776;28;20227;-83
2022/03/28 02:45:02;;;;;;;18.33;7.93;;;;;;;;;;5060092;28;20289;-84
2022/03/28 02:47:31;;;;;;;24.40;8.47;;;;;;;;;;5062464;28;20206;-83
2022/03/28 02:49:58;;;;;;;19.57;8.40;;;;;;;;;;5056953;28;20290;-85
2022/03/28 02:52:25;;;;;;;17.23;7.50;;;;;;;;;;5063049;28;20226;-83
2022/03/28 02:54:53;;;;;;;17.73;7.83;;;;;;;;;;5066190;28;20210;-85
2022/03/28 02:57:20;;;;;;;16.30;7.60;;;;;;;;;;5060477;28;20315;-84
2022/03/28 02:59:47;;;;;;;14.70;7.67;;;;;;;;;;5047679;28;20227;-83
2022/03/28 03:02:15;;;;;;;16.97;7.57;;;;;;;;;;5049767;28;20223;-82
2022/03/28 03:04:43;;;;;;;18.17;7.90;;;;;;;;;;5053190;28;20234;-84
2022/03/28 03:07:11;;;;;;;19.67;8.83;;;;;;;;;;5056512;28;20280;-83
2022/03/28 03:09:38;;;;;;;20.53;8.13;;;;;;;;;;5060757;28;20200;-84
2022/03/28 03:12:08;;;;;;;16.23;7.60;;;;;;;;;;5058918;28;20242;-83
2022/03/28 03:14:35;;;;;;;15.77;7.47;;;;;;;;;;5058353;28;20206;-82
2022/03/28 03:17:03;;;;;;;15.60;7.73;;;;;;;;;;5053738;28;20207;-83
2022/03/28 03:19:30;;;;;;;17.63;7.97;;;;;;;;;;5051008;28;20297;-83
2022/03/28 03:21:59;;;;;;;22.90;8.10;;;;;;;;;;5057338;28;20214;-83
2022/03/28 03:24:26;;;;;;;17.77;8.13;;;;;;;;;;5055929;28;20683;-83
2022/03/28 03:26:53;;;;;;;16.17;7.90;;;;;;;;;;5057370;28;20205;-82
2022/03/28 03:29:21;;;;;;;19.77;8.03;;;;;;;;;;5058224;28;20317;-82
2022/03/28 03:31:48;;;;;;;19.10;7.67;;;;;;;;;;5058530;28;20203;-84
2022/03/28 03:34:15;;;;;;;20.30;8.60;;;;;;;;;;5053200;28;20229;-84
2022/03/28 03:36:43;;;;;;;16.67;7.90;;;;;;;;;;5049751;28;20270;-83
2022/03/28 03:39:11;;;;;;;19.30;7.83;;;;;;;;;;5050958;28;20236;-83
2022/03/28 03:41:39;;;;;;;17.40;7.63;;;;;;;;;;5051934;28;20199;-83
2022/03/28 03:44:06;;;;;;;16.20;7.73;;;;;;;;;;5049292;28;20332;-83
2022/03/28 03:46:33;;;;;;;15.77;7.63;;;;;;;;;;5044790;28;20257;-81
2022/03/28 03:49:00;;;;;;;17.93;8.00;;;;;;;;;;5042346;28;22161;-85
2022/03/28 03:51:28;;;;;;;15.40;7.40;;;;;;;;;;5052185;28;20242;-85
2022/03/28 03:53:55;;;;;;;19.90;7.80;;;;;;;;;;5056661;28;20243;-83
2022/03/28 03:56:25;;;;;;;19.13;8.07;;;;;;;;;;5055216;28;20378;-85
2022/03/28 03:58:53;;;;;;;20.37;8.00;;;;;;;;;;5057238;28;20273;-86
2022/03/28 04:01:21;;;;;;;16.80;7.47;;;;;;;;;;5054539;28;20249;-85
2022/03/28 04:03:48;;;;;;;17.50;7.97;;;;;;;;;;5062663;28;20322;-83
2022/03/28 04:06:15;;;;;;;24.50;8.70;;;;;;;;;;5074169;28;20210;-85
2022/03/28 04:08:42;;;;;;;20.90;7.93;;;;;;;;;;5056703;28;20203;-85
2022/03/28 04:11:09;;;;;;;12.90;7.03;;;;;;;;;;5051986;28;20199;-85
2022/03/28 04:13:38;;;;;;;18.17;7.73;;;;;;;;;;5050997;28;20292;-84
2022/03/28 04:16:06;;;;;;;17.13;8.00;;;;;;;;;;5042027;28;20321;-83
2022/03/28 04:18:35;;;;;;;16.63;7.83;;;;;;;;;;5051568;28;20206;-84
2022/03/28 04:21:02;;;;;;;19.97;7.83;;;;;;;;;;5053576;28;20643;-81
2022/03/28 04:23:29;;;;;;;19.57;7.97;;;;;;;;;;5052643;28;20225;-81
2022/03/28 04:25:56;;;;;;;17.13;7.87;;;;;;;;;;5052234;28;20212;-84
2022/03/28 04:28:24;;;;;;;17.93;8.60;;;;;;;;;;5050966;28;20267;-83
2022/03/28 04:30:52;;;;;;;17.27;7.47;;;;;;;;;;5049737;28;20289;-83
2022/03/28 04:33:20;;;;;;;17.97;8.43;;;;;;;;;;5048013;28;20320;-81
2022/03/28 04:35:47;;;;;;;20.40;7.80;;;;;;;;;;5048842;28;20230;-81
2022/03/28 04:38:14;;;;;;;17.53;7.57;;;;;;;;;;5048320;28;20242;-83
2022/03/28 04:40:41;;;;;;;18.20;7.83;;;;;;;;;;5052889;28;20220;-84
2022/03/28 04:43:09;;;;;;;18.67;7.90;;;;;;;;;;5053850;28;20254;-81
2022/03/28 04:45:37;;;;;;;16.40;7.67;;;;;;;;;;5048444;28;20207;-83
2022/03/28 04:48:06;;;;;;;19.77;8.57;;;;;;;;;;5044168;28;20305;-84
2022/03/28 04:50:33;;;;;;;20.17;7.73;;;;;;;;;;5050511;28;20743;-82
2022/03/28 04:53:01;;;;;;;18.93;7.83;;;;;;;;;;5051691;28;20231;-85
2022/03/28 04:55:28;;;;;;;23.07;8.20;;;;;;;;;;5049628;28;20207;-83
2022/03/28 04:57:55;;;;;;;16.70;7.77;;;;;;;;;;5047930;28;20207;-82
2022/03/28 05:00:23;;;;;;;15.90;7.67;;;;;;;;;;5047395;28;20707;-84
2022/03/28 05:02:50;;;;;;;20.77;8.23;;;;;;;;;;5049276;28;20250;-82
2022/03/28 05:05:18;;;;;;;24.53;8.43;;;;;;;;;;5047619;28;20199;-81
2022/03/28 05:07:46;;;;;;;20.90;8.37;;;;;;;;;;5053745;28;20208;-83
2022/03/28 05:10:13;;;;;;;18.30;8.57;;;;;;;;;;5047182;28;20230;-85
2022/03/28 05:12:40;;;;;;;20.30;8.50;;;;;;;;;;5048639;28;20273;-83
2022/03/28 05:15:08;;;;;;;23.17;8.67;;;;;;;;;;5050702;28;20209;-81
2022/03/28 05:17:35;;;;;;;26.73;9.30;;;;;;;;;;5048700;28;20286;-81
2022/03/28 05:20:02;;;;;;;19.07;9.00;;;;;;;;;;5047681;28;20247;-82
2022/03/28 05:22:31;;;;;;;24.33;10.33;;;;;;;;;;5054599;28;20224;-83
2022/03/28 05:24:59;;;;;;;20.67;10.10;;;;;;;;;;5058405;28;20224;-84
2022/03/28 05:27:26;;;;;;;20.90;8.83;;;;;;;;;;5059465;28;20214;-82
2022/03/28 05:29:53;;;;;;;21.00;8.80;;;;;;;;;;5055398;28;20210;-83
2022/03/28 05:32:20;;;;;;;26.83;7.93;;;;;;;;;;5058621;28;20246;-84
2022/03/28 05:34:48;;;;;;;21.27;9.00;;;;;;;;;;5050748;28;20657;-81
2022/03/28 05:37:16;;;;;;;19.47;8.73;;;;;;;;;;5060785;28;20842;-85
2022/03/28 05:39:47;;;;;;;24.37;8.37;;;;;;;;;;5055907;28;20281;-83
2022/03/28 05:42:14;;;;;;;25.20;8.77;;;;;;;;;;5057048;28;20234;-84
2022/03/28 05:44:41;;;;;;;17.93;8.60;;;;;;;;;;5055699;28;20199;-84
2022/03/28 05:47:09;;;;;;;23.23;9.07;;;;;;;;;;5053789;28;20330;-82
2022/03/28 05:49:36;;;;;;;24.50;8.43;;;;;;;;;;5057346;28;20275;-85
2022/03/28 05:52:04;;;;;;;21.50;8.27;;;;;;;;;;5052731;28;20227;-84
2022/03/28 05:54:31;;;;;;;19.07;8.67;;;;;;;;;;5061727;28;20260;-85
2022/03/28 05:57:00;;;;;;;33.10;9.60;;;;;;;;;;5059683;28;20289;-86
2022/03/28 05:59:27;;;;;;;25.47;8.13;;;;;;;;;;5053147;28;20293;-85
2022/03/28 06:01:54;;;;;;;27.80;9.47;;;;;;;;;;5047626;28;20292;-84
2022/03/28 06:04:21;;;;;;;27.53;8.47;;;;;;;;;;5049795;28;20207;-84
2022/03/28 06:06:49;;;;;;;22.07;8.80;;;;;;;;;;5052660;28;20222;-83
2022/03/28 06:09:16;;;;;;;26.77;8.37;;;;;;;;;;5055757;28;20226;-86
2022/03/28 06:11:43;;;;;;;25.10;8.60;;;;;;;;;;5050841;28;20631;-84
2022/03/28 06:14:12;;;;;;;25.17;9.50;;;;;;;;;;5051077;28;20943;-85
2022/03/28 06:16:39;;;;;;;20.13;7.73;;;;;;;;;;5050121;28;20207;-85
2022/03/28 06:19:06;;;;;;;19.43;7.80;;;;;;;;;;5051036;28;20853;-84
2022/03/28 06:21:33;;;;;;;17.03;6.87;;;;;;;;;;5056205;28;20309;-84
2022/03/28 06:24:01;;;;;;;16.93;6.90;;;;;;;;;;5047178;28;20215;-84
2022/03/28 06:26:28;;;;;;;17.13;7.17;;;;;;;;;;5047448;28;20282;-85
2022/03/28 06:28:55;;;;;;;15.87;7.83;;;;;;;;;;5053178;28;20226;-85
2022/03/28 06:31:24;;;;;;;15.87;7.20;;;;;;;;;;5054505;28;20217;-85
2022/03/28 06:33:51;;;;;;;16.03;7.50;;;;;;;;;;5053593;28;20246;-85
2022/03/28 06:36:19;;;;;;;16.27;7.90;;;;;;;;;;5053947;28;20298;-84
2022/03/28 06:38:46;;;;;;;14.00;8.00;;;;;;;;;;5048642;28;20855;-84
2022/03/28 06:41:14;;;;;;;21.87;8.13;;;;;;;;;;5052673;28;20215;-84
2022/03/28 06:43:41;;;;;;;14.90;8.37;;;;;;;;;;5053395;28;20223;-84
2022/03/28 06:46:09;;;;;;;17.57;8.47;;;;;;;;;;5055061;28;20265;-84
2022/03/28 06:48:37;;;;;;;15.43;7.97;;;;;;;;;;5041046;28;20203;-83
2022/03/28 06:51:06;;;;;;;16.80;7.07;;;;;;;;;;5048124;28;20290;-84
2022/03/28 06:53:34;;;;;;;20.13;7.90;;;;;;;;;;5040367;28;20249;-85
2022/03/28 06:56:01;;;;;;;21.53;7.90;;;;;;;;;;5045527;28;20257;-84
2022/03/28 06:58:28;;;;;;;16.47;7.70;;;;;;;;;;5049825;28;20199;-86
2022/03/28 07:00:55;;;;;;;20.03;7.40;;;;;;;;;;5054991;28;20238;-82
2022/03/28 07:03:23;;;;;;;15.77;8.13;;;;;;;;;;5064645;28;20545;-86
2022/03/28 07:05:51;;;;;;;19.03;8.60;;;;;;;;;;5058530;28;20198;-85
2022/03/28 07:08:19;;;;;;;15.53;8.13;;;;;;;;;;5053568;28;20266;-86
2022/03/28 07:10:46;;;;;;;15.60;7.70;;;;;;;;;;5057792;28;20293;-84
2022/03/28 07:13:13;;;;;;;23.20;7.97;;;;;;;;;;5048273;28;20243;-85
2022/03/28 07:15:41;;;;;;;20.73;8.47;;;;;;;;;;5045387;28;20203;-85
2022/03/28 07:18:08;;;;;;;14.93;7.67;;;;;;;;;;5051301;28;20206;-85
2022/03/28 07:20:35;;;;;;;14.43;7.93;;;;;;;;;;5055822;28;20314;-83
2022/03/28 07:23:05;;;;;;;17.87;8.67;;;;;;;;;;5054299;28;20249;-84
2022/03/28 07:25:32;;;;;;;17.67;7.73;;;;;;;;;;5059015;28;20269;-85
2022/03/28 07:27:59;;;;;;;15.03;8.40;;;;;;;;;;5049119;28;20265;-85
2022/03/28 07:30:27;;;;;;;17.73;8.57;;;;;;;;;;5058226;28;20203;-84
2022/03/28 07:32:54;;;;;;;15.20;8.13;;;;;;;;;;5047265;28;20233;-83
2022/03/28 07:35:22;;;;;;;15.10;8.30;;;;;;;;;;5061740;28;20580;-84
2022/03/28 07:37:50;;;;;;;15.67;7.60;;;;;;;;;;5058372;28;20256;-84
2022/03/28 07:40:20;;;;;;;14.10;7.63;;;;;;;;;;5054794;28;20227;-84
2022/03/28 07:42:47;;;;;;;14.07;7.40;;;;;;;;;;5056630;28;20312;-84
2022/03/28 07:45:15;;;;;;;13.83;7.27;;;;;;;;;;5052263;28;20271;-83
2022/03/28 07:47:42;;;;;;;14.57;7.23;;;;;;;;;;5052033;28;20260;-85
2022/03/28 07:50:10;;;;;;;14.80;8.20;;;;;;;;;;5057003;28;20210;-85
2022/03/28 07:52:38;;;;;;;13.00;7.33;;;;;;;;;;5055952;28;20269;-84
2022/03/28 07:55:05;;;;;;;17.17;7.53;;;;;;;;;;5055050;28;20207;-85
2022/03/28 07:57:35;;;;;;;17.13;8.20;;;;;;;;;;5058651;28;20237;-84
2022/03/28 08:00:04;;;;;;;16.87;8.00;;;;;;;;;;5053910;28;20218;-85
2022/03/28 08:02:31;;;;;;;13.60;7.57;;;;;;;;;;5050929;28;20224;-84
2022/03/28 08:04:59;;;;;;;22.37;8.20;;;;;;;;;;5063758;22;20313;-80
2022/03/28 08:07:26;;;;;;;14.77;7.07;;;;;;;;;;5045029;28;20206;-80
2022/03/28 08:09:54;;;;;;;13.13;7.27;;;;;;;;;;5043717;28;20230;-80
2022/03/28 08:12:21;;;;;;;16.30;7.50;;;;;;;;;;5048581;28;20645;-78
2022/03/28 08:14:51;;;;;;;12.67;8.03;;;;;;;;;;5047401;28;20311;-78
2022/03/28 08:17:19;;;;;;;18.13;7.10;;;;;;;;;;5047354;28;20211;-81
2022/03/28 08:19:46;;;;;;;13.43;7.33;;;;;;;;;;5043297;28;20235;-81
2022/03/28 08:22:14;;;;;;;12.37;7.20;;;;;;;;;;5048088;28;20257;-82
2022/03/28 08:24:41;;;;;;;12.67;7.47;;;;;;;;;;5046890;28;20373;-81
2022/03/28 08:27:08;;;;;;;11.67;7.23;;;;;;;;;;5049342;28;20298;-81
2022/03/28 08:29:36;;;;;;;15.80;7.40;;;;;;;;;;5049795;28;20258;-78
2022/03/28 08:32:05;;;;;;;12.70;7.03;;;;;;;;;;5047901;28;20234;-81
2022/03/28 08:34:32;;;;;;;11.13;7.27;;;;;;;;;;5051095;28;20288;-79
2022/03/28 08:36:59;;;;;;;11.47;6.63;;;;;;;;;;5046935;28;20243;-81
2022/03/28 08:39:26;;;;;;;13.83;7.13;;;;;;;;;;5049016;28;20226;-80
2022/03/28 08:41:54;;;;;;;16.27;6.90;;;;;;;;;;5047877;28;20224;-82
2022/03/28 08:44:23;;;;;;;12.50;6.77;;;;;;;;;;5046162;28;20631;-81
2022/03/28 08:46:52;;;;;;;11.00;6.63;;;;;;;;;;5050657;28;20223;-79
2022/03/28 08:49:21;;;;;;;14.00;7.27;;;;;;;;;;5053353;28;20792;-81
2022/03/28 08:51:49;;;;;;;12.87;7.00;;;;;;;;;;5049274;28;20457;-79
2022/03/28 08:54:17;;;;;;;11.60;6.73;;;;;;;;;;5047990;28;20204;-82
2022/03/28 08:56:44;;;;;;;16.23;7.17;;;;;;;;;;5047156;28;20241;-81
2022/03/28 08:59:11;;;;;;;18.97;6.83;;;;;;;;;;5045851;28;20309;-81
2022/03/28 09:01:39;;;;;;;13.20;6.50;;;;;;;;;;5048844;28;20314;-79
2022/03/28 09:04:10;;;;;;;13.27;7.03;;;;;;;;;;5044508;28;20730;-82
2022/03/28 09:06:39;;;;;;;12.17;6.97;;;;;;;;;;5046950;28;21738;-81
2022/03/28 09:09:20;;;;;;;12.90;6.30;;;;;;;;;;5046762;28;20282;-81
2022/03/28 09:11:50;;;;;;;13.53;6.53;;;;;;;;;;5048871;28;20201;-79
2022/03/28 09:14:28;;;;;;;11.13;7.07;;;;;;;;;;5045627;28;20611;-80
2022/03/28 09:16:59;;;;;;;12.60;7.37;;;;;;;;;;5049433;28;20206;-79
2022/03/28 09:19:28;;;;;;;9.87;6.43;;;;;;;;;;5048292;28;20247;-80
2022/03/28 09:21:56;;;;;;;9.27;5.60;;;;;;;;;;5045751;28;20631;-81
2022/03/28 09:24:32;;;;;;;15.53;6.37;;;;;;;;;;5046830;28;20206;-80
2022/03/28 09:27:11;;;;;;;15.23;6.20;;;;;;;;;;5046797;28;20225;-80
2022/03/28 09:29:52;;;;;;;10.13;6.17;;;;;;;;;;5046957;28;20709;-80
2022/03/28 09:32:23;;;;;;;13.87;6.27;;;;;;;;;;5048924;28;20207;-77
2022/03/28 09:35:04;;;;;;;9.27;5.80;;;;;;;;;;5047978;28;20625;-81
2022/03/28 09:37:47;;;;;;;12.57;6.23;;;;;;;;;;5046480;28;20215;-81
2022/03/28 09:40:25;;;;;;;14.80;6.43;;;;;;;;;;5050583;28;20260;-79
2022/03/28 09:42:52;;;;;;;9.30;5.77;;;;;;;;;;5050495;28;20230;-78
2022/03/28 09:45:20;;;;;;;14.33;5.87;;;;;;;;;;5048213;28;20238;-81
2022/03/28 09:47:55;;;;;;;8.87;5.37;;;;;;;;;;5049145;28;20202;-79
2022/03/28 09:50:27;;;;;;;10.60;4.60;;;;;;;;;;5045851;28;20247;-79
2022/03/28 09:52:56;;;;;;;12.13;4.83;;;;;;;;;;5047743;28;20222;-79
2022/03/28 09:55:23;;;;;;;12.07;5.60;;;;;;;;;;5048954;28;20293;-81
2022/03/28 09:57:50;;;;;;;12.97;6.23;;;;;;;;;;5043299;28;20286;-78
2022/03/28 10:00:19;;;;;;;12.67;5.50;;;;;;;;;;5048928;28;20219;-77
2022/03/28 10:02:47;;;;;;;10.60;5.07;;;;;;;;;;5047987;28;20258;-80
2022/03/28 10:05:14;;;;;;;10.80;5.47;;;;;;;;;;5046573;28;20286;-79
2022/03/28 10:07:41;;;;;;;8.77;5.03;;;;;;;;;;5048948;28;20245;-78
2022/03/28 10:10:10;;;;;;;14.20;6.60;;;;;;;;;;5049035;28;20798;-78
2022/03/28 10:12:39;;;;;;;14.40;6.07;;;;;;;;;;5049864;28;20226;-80
2022/03/28 10:15:07;;;;;;;10.77;5.33;;;;;;;;;;5043211;28;20254;-81
2022/03/28 10:17:34;;;;;;;19.50;6.87;;;;;;;;;;5043217;28;20290;-81
2022/03/28 10:20:02;;;;;;;11.17;5.90;;;;;;;;;;5040280;28;20721;-80
2022/03/28 10:22:30;;;;;;;10.53;5.67;;;;;;;;;;5044551;28;20227;-78
2022/03/28 10:24:59;;;;;;;10.53;5.40;;;;;;;;;;5040435;28;20294;-76
2022/03/28 10:27:28;;;;;;;10.90;5.60;;;;;;;;;;5043629;28;20567;-77
2022/03/28 10:29:55;;;;;;;11.50;5.70;;;;;;;;;;5042515;28;20215;-80
2022/03/28 10:32:22;;;;;;;13.47;5.73;;;;;;;;;;5040916;28;20209;-79
2022/03/28 10:34:52;;;;;;;12.50;6.00;;;;;;;;;;5045494;28;20211;-79
2022/03/28 10:37:35;;;;;;;10.73;5.10;;;;;;;;;;5042128;28;20824;-81
2022/03/28 10:40:21;;;;;;;11.43;5.30;;;;;;;;;;5045494;28;20236;-79
2022/03/28 10:42:51;;;;;;;14.90;5.53;;;;;;;;;;5041384;28;20222;-79
2022/03/28 10:45:21;;;;;;;12.83;5.57;;;;;;;;;;5040918;28;20228;-80
2022/03/28 10:47:50;;;;;;;12.17;5.07;;;;;;;;;;5043377;28;20281;-81
2022/03/28 10:50:21;;;;;;;17.10;6.63;;;;;;;;;;5045912;28;20258;-81
2022/03/28 10:53:04;;;;;;;14.00;6.10;;;;;;;;;;5045692;28;20195;-79
2022/03/28 10:55:37;;;;;;;16.93;6.33;;;;;;;;;;5043531;28;20272;-77
2022/03/28 10:58:13;;;;;;;13.03;6.20;;;;;;;;;;5049731;28;20648;-82
2022/03/28 11:01:01;;;;;;;16.70;5.90;;;;;;;;;;5048533;28;20255;-80
2022/03/28 11:03:35;;;;;;;13.23;5.50;;;;;;;;;;5043092;28;20310;-79
2022/03/28 11:06:02;;;;;;;15.03;6.00;;;;;;;;;;5047096;28;20215;-81
2022/03/28 11:08:32;;;;;;;12.43;5.17;;;;;;;;;;5045316;28;20192;-79
2022/03/28 11:11:19;;;;;;;13.77;6.30;;;;;;;;;;5047721;28;20287;-80
2022/03/28 11:13:58;;;;;;;12.93;6.17;;;;;;;;;;5049075;28;20267;-81
2022/03/28 11:16:40;;;;;;;22.20;5.73;;;;;;;;;;5042316;28;20199;-77
2022/03/28 11:19:20;;;;;;;16.80;5.53;;;;;;;;;;5042748;28;20247;-77
2022/03/28 11:21:56;;;;;;;14.10;5.53;;;;;;;;;;5046620;28;20235;-77
2022/03/28 11:24:38;;;;;;;11.67;5.40;;;;;;;;;;5044831;28;20241;-81
2022/03/28 11:27:07;;;;;;;9.53;5.07;;;;;;;;;;5048411;28;20207;-78
2022/03/28 11:29:36;;;;;;;9.77;5.40;;;;;;;;;;5045373;28;20352;-81
2022/03/28 11:32:05;;;;;;;13.03;5.90;;;;;;;;;;5038532;28;20196;-78
2022/03/28 11:34:33;;;;;;;13.77;5.23;;;;;;;;;;5041964;28;20211;-81
2022/03/28 11:37:00;;;;;;;11.70;5.17;;;;;;;;;;5045731;28;20582;-77
2022/03/28 11:39:27;;;;;;;11.53;4.90;;;;;;;;;;5038994;28;20253;-77
2022/03/28 11:41:55;;;;;;;12.17;5.03;;;;;;;;;;5040351;28;20661;-78
2022/03/28 11:44:24;;;;;;;12.77;5.30;;;;;;;;;;5040827;28;20230;-76
2022/03/28 11:46:57;;;;;;;13.37;5.40;;;;;;;;;;5035793;28;20199;-77
2022/03/28 11:49:24;;;;;;;10.93;4.80;;;;;;;;;;5037979;28;20242;-77
2022/03/28 11:51:52;;;;;;;13.90;4.57;;;;;;;;;;5038648;28;20282;-77
2022/03/28 11:54:21;;;;;;;12.23;4.27;;;;;;;;;;5032625;28;20199;-77
2022/03/28 11:59:40;;;;;;;8.63;4.80;;;;;;;;;;5043239;28;20225;-78
2022/03/28 12:02:09;;;;;;;9.37;4.33;;;;;;;;;;5044522;28;20325;-78
2022/03/28 12:04:44;;;;;;;8.20;3.83;;;;;;;;;;5037740;28;20306;-78
2022/03/28 12:07:12;;;;;;;7.70;4.00;;;;;;;;;;5034858;28;20265;-77
2022/03/28 12:09:43;;;;;;;13.83;4.43;;;;;;;;;;5026557;28;20703;-79
2022/03/28 12:12:10;;;;;;;7.80;3.90;;;;;;;;;;5037838;28;20227;-78
2022/03/28 12:14:38;;;;;;;9.10;4.30;;;;;;;;;;5028758;28;20674;-77
2022/03/28 12:17:06;;;;;;;12.07;4.30;;;;;;;;;;5035720;28;20336;-78
2022/03/28 12:19:35;;;;;;;9.00;3.97;;;;;;;;;;5037015;28;20226;-79
2022/03/28 12:22:14;;;;;;;7.00;4.07;;;;;;;;;;5033990;28;20213;-78
2022/03/28 12:24:50;;;;;;;9.77;4.30;;;;;;;;;;5042106;28;20710;-78
2022/03/28 12:27:19;;;;;;;9.20;4.73;;;;;;;;;;5039393;28;20529;-77
2022/03/28 12:29:46;;;;;;;7.73;3.93;;;;;;;;;;5042386;28;20317;-77
2022/03/28 12:32:16;;;;;;;10.67;4.60;;;;;;;;;;5034072;28;20321;-77
2022/03/28 12:34:45;;;;;;;7.17;3.70;;;;;;;;;;5035843;28;20676;-78
2022/03/28 12:37:15;;;;;;;13.70;4.50;;;;;;;;;;5041939;28;20276;-77
2022/03/28 12:39:44;;;;;;;12.13;4.57;;;;;;;;;;5035843;28;20239;-78
2022/03/28 12:42:25;;;;;;;8.03;3.90;;;;;;;;;;5037402;28;20249;-77
2022/03/28 12:44:54;;;;;;;12.37;3.67;;;;;;;;;;5039726;28;20235;-78
2022/03/28 12:47:21;;;;;;;8.63;3.93;;;;;;;;;;5037165;28;20198;-78
2022/03/28 12:49:54;;;;;;;9.70;4.57;;;;;;;;;;5043597;28;20758;-77
2022/03/28 12:52:24;;;;;;;10.47;4.20;;;;;;;;;;5042626;28;20262;-78
2022/03/28 12:54:55;;;;;;;10.33;4.20;;;;;;;;;;5048380;28;20284;-78
2022/03/28 12:57:27;;;;;;;7.87;4.27;;;;;;;;;;5042483;28;20291;-77
2022/03/28 12:59:55;;;;;;;11.50;4.37;;;;;;;;;;5042241;28;20223;-77
2022/03/28 13:02:22;;;;;;;11.17;5.03;;;;;;;;;;5043332;28;20207;-78
2022/03/28 13:04:52;;;;;;;7.93;4.10;;;;;;;;;;5045464;28;20218;-78
2022/03/28 13:07:20;;;;;;;9.10;4.33;;;;;;;;;;5039816;28;20579;-77
2022/03/28 13:09:57;;;;;;;11.27;4.70;;;;;;;;;;5039868;28;20230;-77
2022/03/28 13:12:34;;;;;;;13.17;5.37;;;;;;;;;;5041550;28;20198;-78
2022/03/28 13:15:01;;;;;;;11.13;5.03;;;;;;;;;;5046069;28;20213;-77
2022/03/28 13:17:29;;;;;;;12.57;4.53;;;;;;;;;;5050674;28;20503;-78
2022/03/28 13:19:59;;;;;;;14.90;4.30;;;;;;;;;;5046313;28;20238;-75
2022/03/28 13:22:28;;;;;;;10.07;4.60;;;;;;;;;;5044448;28;20301;-76
2022/03/28 13:25:07;;;;;;;13.47;4.73;;;;;;;;;;5042714;28;20202;-77
2022/03/28 13:30:21;;;;;;;12.53;5.23;;;;;;;;;;5039071;28;20301;-77
2022/03/28 13:32:49;;;;;;;8.73;4.90;;;;;;;;;;5039404;28;20245;-76
2022/03/28 13:35:18;;;;;;;12.23;4.73;;;;;;;;;;5046382;28;20223;-77
2022/03/28 13:37:54;;;;;;;13.23;5.33;;;;;;;;;;5045141;28;20207;-76
2022/03/28 13:40:22;;;;;;;8.47;4.47;;;;;;;;;;5045922;28;20258;-77
2022/03/28 13:42:49;;;;;;;11.93;4.57;;;;;;;;;;5038771;28;20318;-77
2022/03/28 13:45:16;;;;;;;14.27;4.53;;;;;;;;;;5031355;28;20690;-77
2022/03/28 13:47:44;;;;;;;9.73;4.40;;;;;;;;;;5033359;28;20255;-78
2022/03/28 13:50:11;;;;;;;13.27;4.43;;;;;;;;;;5041720;28;20218;-77
2022/03/28 13:52:39;;;;;;;13.80;5.00;;;;;;;;;;5034567;28;20370;-78
2022/03/28 13:55:07;;;;;;;10.67;4.97;;;;;;;;;;5039190;28;20553;-78
2022/03/28 13:57:34;;;;;;;11.00;4.67;;;;;;;;;;5042615;28;20237;-78
2022/03/28 14:00:01;;;;;;;8.63;4.07;;;;;;;;;;5042249;28;20250;-78
2022/03/28 14:02:29;;;;;;;9.60;4.97;;;;;;;;;;5037612;28;20574;-77
2022/03/28 14:04:56;;;;;;;11.57;5.30;;;;;;;;;;5065902;22;20235;-81
2022/03/28 14:07:24;;;;;;;12.27;4.97;;;;;;;;;;5084991;28;20260;-81
2022/03/28 14:09:53;;;;;;;8.97;5.00;;;;;;;;;;5072910;28;20218;-83
2022/03/28 14:12:20;;;;;;;11.50;4.83;;;;;;;;;;5066769;28;20297;-80
2022/03/28 14:14:47;;;;;;;15.13;5.27;;;;;;;;;;5064257;28;20294;-81
2022/03/28 14:17:14;;;;;;;13.50;5.33;;;;;;;;;;5064948;28;20620;-81
2022/03/28 14:19:43;;;;;;;9.33;4.97;;;;;;;;;;5066227;28;20231;-80
2022/03/28 14:22:10;;;;;;;21.40;5.37;;;;;;;;;;5061640;28;20215;-81
2022/03/28 14:24:37;;;;;;;9.97;5.47;;;;;;;;;;5060527;28;20215;-82
2022/03/28 14:27:06;;;;;;;15.30;6.10;;;;;;;;;;5055111;28;20206;-81
2022/03/28 14:29:34;;;;;;;11.23;5.23;;;;;;;;;;5063268;28;20727;-79
2022/03/28 14:32:04;;;;;;;11.63;5.40;;;;;;;;;;5067088;28;20213;-80
2022/03/28 14:34:31;;;;;;;14.20;5.40;;;;;;;;;;5064843;28;20227;-80
2022/03/28 14:36:58;;;;;;;12.50;5.67;;;;;;;;;;5070138;28;20692;-79
2022/03/28 14:39:26;;;;;;;11.43;5.13;;;;;;;;;;5069384;28;20226;-80
2022/03/28 14:41:53;;;;;;;17.10;6.13;;;;;;;;;;5068807;28;20565;-80
2022/03/28 14:44:22;;;;;;;11.43;5.40;;;;;;;;;;5065004;28;20364;-80